NPV1200 LIRI-LGAV
Flight info
| Callsign | NPV1200 |
|---|---|
| Flight time | 1h 17m |
| Altitude | 37000 |
| Route | POLIT DCT MAREP DCT CRN DCT RUTOM UN604 RILIN |
| Aircraft | A320/M-SDE3FGHIRWY/LB1 |
Departure
| Time | 2026-05-05 14:36 |
|---|---|
| Airport | Salerno Costa d'Amalfi Airport (LIRI) |
Arrival
| Time | 2026-05-05 15:53 |
|---|---|
| Airport | Athens Eleftherios Venizelos International Airport (LGAV) |
| Time | Latitude | Longitude | Altitude | Speed | Heading |
|---|---|---|---|---|---|
| 2026-05-05 14:12 | 40.62062 | 14.92047 | 88 ft | 0 kts | 141° |
| 2026-05-05 14:28 | 40.62062 | 14.92046 | 84 ft | 1 kts | 141° |
| 2026-05-05 14:28 | 40.62080 | 14.92026 | 89 ft | 4 kts | 125° |
| 2026-05-05 14:29 | 40.62089 | 14.91996 | 89 ft | 4 kts | 81° |
| 2026-05-05 14:29 | 40.62085 | 14.91979 | 89 ft | 0 kts | 54° |
| 2026-05-05 14:32 | 40.62089 | 14.91987 | 89 ft | 2 kts | 54° |
| 2026-05-05 14:32 | 40.62103 | 14.92010 | 88 ft | 4 kts | 47° |
| 2026-05-05 14:32 | 40.62129 | 14.92000 | 86 ft | 5 kts | 324° |
| 2026-05-05 14:32 | 40.62160 | 14.91964 | 85 ft | 7 kts | 311° |
| 2026-05-05 14:33 | 40.62193 | 14.91907 | 85 ft | 9 kts | 317° |
| 2026-05-05 14:33 | 40.62218 | 14.91880 | 86 ft | 0 kts | 323° |
| 2026-05-05 14:34 | 40.62221 | 14.91877 | 86 ft | 2 kts | 323° |
| 2026-05-05 14:34 | 40.62246 | 14.91853 | 85 ft | 6 kts | 322° |
| 2026-05-05 14:34 | 40.62285 | 14.91812 | 85 ft | 8 kts | 320° |
| 2026-05-05 14:34 | 40.62294 | 14.91762 | 86 ft | 5 kts | 241° |
| 2026-05-05 14:35 | 40.62274 | 14.91723 | 86 ft | 0 kts | 230° |
| 2026-05-05 14:35 | 40.62272 | 14.91719 | 86 ft | 1 kts | 230° |
| 2026-05-05 14:35 | 40.62263 | 14.91705 | 87 ft | 3 kts | 229° |
| 2026-05-05 14:35 | 40.62239 | 14.91665 | 87 ft | 15 kts | 233° |
| 2026-05-05 14:36 | 40.62035 | 14.91320 | 87 ft | 83 kts | 231° |
| 2026-05-05 14:36 | 40.61565 | 14.90523 | 97 ft | 134 kts | 234° |
| 2026-05-05 14:36 | 40.60994 | 14.89564 | 648 ft | 132 kts | 232° |
| 2026-05-05 14:36 | 40.60393 | 14.88627 | 1160 ft | 137 kts | 229° |
| 2026-05-05 14:37 | 40.59767 | 14.87665 | 1702 ft | 139 kts | 229° |
| 2026-05-05 14:37 | 40.59135 | 14.86683 | 2113 ft | 143 kts | 228° |
| 2026-05-05 14:37 | 40.58496 | 14.85684 | 2555 ft | 142 kts | 229° |
| 2026-05-05 14:37 | 40.57857 | 14.84683 | 2981 ft | 143 kts | 229° |
| 2026-05-05 14:38 | 40.57212 | 14.83673 | 3373 ft | 148 kts | 228° |
| 2026-05-05 14:38 | 40.56506 | 14.82575 | 3553 ft | 166 kts | 229° |
| 2026-05-05 14:38 | 40.55727 | 14.81351 | 3703 ft | 183 kts | 229° |
| 2026-05-05 14:38 | 40.54865 | 14.79988 | 3823 ft | 207 kts | 229° |
| 2026-05-05 14:39 | 40.53890 | 14.78435 | 4007 ft | 233 kts | 230° |
| 2026-05-05 14:39 | 40.52805 | 14.76697 | 4388 ft | 256 kts | 230° |
| 2026-05-05 14:39 | 40.51687 | 14.74902 | 5316 ft | 259 kts | 230° |
| 2026-05-05 14:39 | 40.50529 | 14.73056 | 6297 ft | 263 kts | 231° |
| 2026-05-05 14:40 | 40.49355 | 14.71199 | 7248 ft | 265 kts | 231° |
| 2026-05-05 14:40 | 40.48167 | 14.69328 | 8072 ft | 268 kts | 231° |
| 2026-05-05 14:40 | 40.46963 | 14.67444 | 8855 ft | 271 kts | 231° |
| 2026-05-05 14:40 | 40.45745 | 14.65527 | 9637 ft | 275 kts | 231° |
| 2026-05-05 14:41 | 40.44520 | 14.63587 | 10425 ft | 278 kts | 232° |
| 2026-05-05 14:41 | 40.43245 | 14.61566 | 10734 ft | 299 kts | 232° |
| 2026-05-05 14:41 | 40.41774 | 14.59493 | 10867 ft | 323 kts | 221° |
| 2026-05-05 14:41 | 40.39760 | 14.57964 | 10999 ft | 348 kts | 201° |
| 2026-05-05 14:42 | 40.37331 | 14.57437 | 11393 ft | 362 kts | 180° |
| 2026-05-05 14:42 | 40.34848 | 14.58102 | 11937 ft | 372 kts | 159° |
| 2026-05-05 14:42 | 40.32678 | 14.59925 | 12544 ft | 380 kts | 139° |
| 2026-05-05 14:42 | 40.30744 | 14.62385 | 13170 ft | 384 kts | 137° |
| 2026-05-05 14:43 | 40.28873 | 14.64828 | 13776 ft | 387 kts | 136° |
| 2026-05-05 14:43 | 40.26965 | 14.67338 | 14322 ft | 391 kts | 136° |
| 2026-05-05 14:43 | 40.25037 | 14.69875 | 14876 ft | 394 kts | 137° |
| 2026-05-05 14:43 | 40.23094 | 14.72420 | 15408 ft | 396 kts | 137° |
| 2026-05-05 14:44 | 40.21134 | 14.74971 | 15926 ft | 399 kts | 137° |
| 2026-05-05 14:44 | 40.19150 | 14.77536 | 16443 ft | 402 kts | 137° |
| 2026-05-05 14:44 | 40.17147 | 14.80121 | 16950 ft | 406 kts | 138° |
| 2026-05-05 14:44 | 40.15230 | 14.82868 | 17419 ft | 412 kts | 129° |
| 2026-05-05 14:45 | 40.13689 | 14.86050 | 17920 ft | 419 kts | 119° |
| 2026-05-05 14:45 | 40.12440 | 14.89523 | 18441 ft | 423 kts | 117° |
| 2026-05-05 14:45 | 40.11194 | 14.93023 | 18893 ft | 427 kts | 117° |
| 2026-05-05 14:45 | 40.09930 | 14.96551 | 19393 ft | 429 kts | 117° |
| 2026-05-05 14:46 | 40.08671 | 15.00046 | 19856 ft | 432 kts | 117° |
| 2026-05-05 14:46 | 40.07382 | 15.03614 | 20315 ft | 436 kts | 117° |
| 2026-05-05 14:46 | 40.06087 | 15.07198 | 20750 ft | 439 kts | 117° |
| 2026-05-05 14:46 | 40.04780 | 15.10819 | 21164 ft | 442 kts | 117° |
| 2026-05-05 14:47 | 40.03467 | 15.14463 | 21571 ft | 445 kts | 117° |
| 2026-05-05 14:47 | 40.02143 | 15.18137 | 21955 ft | 449 kts | 117° |
| 2026-05-05 14:47 | 40.00807 | 15.21823 | 22339 ft | 452 kts | 117° |
| 2026-05-05 14:47 | 39.99454 | 15.25545 | 22730 ft | 455 kts | 118° |
| 2026-05-05 14:48 | 39.98094 | 15.29275 | 23105 ft | 458 kts | 118° |
| 2026-05-05 14:48 | 39.96724 | 15.33033 | 23508 ft | 459 kts | 118° |
| 2026-05-05 14:48 | 39.95354 | 15.36791 | 23852 ft | 462 kts | 118° |
| 2026-05-05 14:48 | 39.93968 | 15.40599 | 24175 ft | 465 kts | 118° |
| 2026-05-05 14:49 | 39.92580 | 15.44406 | 24505 ft | 467 kts | 118° |
| 2026-05-05 14:49 | 39.91180 | 15.48240 | 24816 ft | 470 kts | 118° |
| 2026-05-05 14:49 | 39.89772 | 15.52090 | 25126 ft | 472 kts | 118° |
| 2026-05-05 14:49 | 39.88349 | 15.55961 | 25427 ft | 475 kts | 118° |
| 2026-05-05 14:50 | 39.86857 | 15.59811 | 25730 ft | 476 kts | 123° |
| 2026-05-05 14:50 | 39.85014 | 15.63381 | 26031 ft | 476 kts | 129° |
| 2026-05-05 14:50 | 39.83026 | 15.66835 | 26299 ft | 479 kts | 129° |
| 2026-05-05 14:50 | 39.81016 | 15.70312 | 26550 ft | 483 kts | 129° |
| 2026-05-05 14:51 | 39.78984 | 15.73810 | 26835 ft | 486 kts | 129° |
| 2026-05-05 14:51 | 39.76949 | 15.77315 | 27231 ft | 486 kts | 129° |
| 2026-05-05 14:51 | 39.74913 | 15.80826 | 27655 ft | 486 kts | 129° |
| 2026-05-05 14:51 | 39.72910 | 15.84288 | 28067 ft | 486 kts | 129° |
| 2026-05-05 14:52 | 39.70876 | 15.87803 | 28503 ft | 486 kts | 129° |
| 2026-05-05 14:52 | 39.68842 | 15.91312 | 28933 ft | 486 kts | 129° |
| 2026-05-05 14:52 | 39.66797 | 15.94834 | 29357 ft | 487 kts | 129° |
| 2026-05-05 14:52 | 39.64753 | 15.98346 | 29735 ft | 487 kts | 129° |
| 2026-05-05 14:53 | 39.62715 | 16.01848 | 30185 ft | 486 kts | 129° |
| 2026-05-05 14:53 | 39.60677 | 16.05348 | 30603 ft | 485 kts | 129° |
| 2026-05-05 14:53 | 39.58644 | 16.08828 | 30955 ft | 485 kts | 129° |
| 2026-05-05 14:53 | 39.56608 | 16.12312 | 31300 ft | 485 kts | 129° |
| 2026-05-05 14:54 | 39.54564 | 16.15803 | 31643 ft | 486 kts | 129° |
| 2026-05-05 14:54 | 39.52518 | 16.19295 | 31987 ft | 487 kts | 129° |
| 2026-05-05 14:54 | 39.50494 | 16.22745 | 32328 ft | 487 kts | 129° |
| 2026-05-05 14:54 | 39.48440 | 16.26245 | 32682 ft | 488 kts | 129° |
| 2026-05-05 14:55 | 39.46387 | 16.29744 | 33061 ft | 489 kts | 129° |
| 2026-05-05 14:55 | 39.44327 | 16.33250 | 33436 ft | 489 kts | 129° |
| 2026-05-05 14:55 | 39.42266 | 16.36750 | 33790 ft | 490 kts | 128° |
| 2026-05-05 14:55 | 39.40201 | 16.40246 | 34153 ft | 490 kts | 128° |
| 2026-05-05 14:56 | 39.38129 | 16.43747 | 34485 ft | 489 kts | 128° |
| 2026-05-05 14:56 | 39.36069 | 16.47229 | 34857 ft | 487 kts | 128° |
| 2026-05-05 14:56 | 39.34015 | 16.50700 | 35245 ft | 485 kts | 128° |
| 2026-05-05 14:56 | 39.31972 | 16.54156 | 35637 ft | 482 kts | 129° |
| 2026-05-05 14:57 | 39.29942 | 16.57594 | 36022 ft | 479 kts | 129° |
| 2026-05-05 14:57 | 39.27926 | 16.61000 | 36389 ft | 477 kts | 129° |
| 2026-05-05 14:57 | 39.25915 | 16.64389 | 36722 ft | 474 kts | 129° |
| 2026-05-05 14:57 | 39.23913 | 16.67755 | 37013 ft | 472 kts | 130° |
| 2026-05-05 14:58 | 39.19901 | 16.74457 | 37074 ft | 479 kts | 130° |
| 2026-05-05 14:58 | 39.15811 | 16.81286 | 37070 ft | 482 kts | 129° |
| 2026-05-05 14:59 | 39.11714 | 16.88147 | 37082 ft | 483 kts | 129° |
| 2026-05-05 14:59 | 39.07614 | 16.94996 | 37081 ft | 483 kts | 129° |
| 2026-05-05 15:00 | 39.04196 | 17.00684 | 37078 ft | 483 kts | 129° |
| 2026-05-05 15:00 | 38.99759 | 17.09020 | 37089 ft | 485 kts | 116° |
| 2026-05-05 15:01 | 38.97474 | 17.17180 | 37098 ft | 486 kts | 107° |
| 2026-05-05 15:01 | 38.95493 | 17.25421 | 37090 ft | 485 kts | 107° |
| 2026-05-05 15:02 | 38.93498 | 17.33698 | 37098 ft | 485 kts | 107° |
| 2026-05-05 15:02 | 38.91492 | 17.41965 | 37105 ft | 485 kts | 107° |
| 2026-05-05 15:03 | 38.89478 | 17.50236 | 37102 ft | 485 kts | 107° |
| 2026-05-05 15:03 | 38.87464 | 17.58506 | 37099 ft | 486 kts | 107° |
| 2026-05-05 15:04 | 38.85448 | 17.66728 | 37104 ft | 486 kts | 107° |
| 2026-05-05 15:04 | 38.83412 | 17.74995 | 37112 ft | 486 kts | 107° |
| 2026-05-05 15:05 | 38.80358 | 17.87404 | 37105 ft | 487 kts | 107° |
| 2026-05-05 15:06 | 38.78308 | 17.95676 | 37115 ft | 487 kts | 107° |
| 2026-05-05 15:06 | 38.76246 | 18.03946 | 37113 ft | 487 kts | 107° |
| 2026-05-05 15:07 | 38.74184 | 18.12207 | 37111 ft | 487 kts | 107° |
| 2026-05-05 15:07 | 38.72117 | 18.20458 | 37119 ft | 487 kts | 107° |
| 2026-05-05 15:08 | 38.70058 | 18.28670 | 37120 ft | 487 kts | 108° |
| 2026-05-05 15:08 | 38.67976 | 18.36920 | 37119 ft | 487 kts | 108° |
| 2026-05-05 15:09 | 38.65886 | 18.45171 | 37131 ft | 488 kts | 107° |
| 2026-05-05 15:09 | 38.63784 | 18.53429 | 37125 ft | 488 kts | 107° |
| 2026-05-05 15:10 | 38.61681 | 18.61682 | 37131 ft | 488 kts | 108° |
| 2026-05-05 15:10 | 38.59574 | 18.69936 | 37129 ft | 488 kts | 107° |
| 2026-05-05 15:11 | 38.57462 | 18.78189 | 37143 ft | 488 kts | 107° |
| 2026-05-05 15:11 | 38.55335 | 18.86441 | 37136 ft | 489 kts | 107° |
| 2026-05-05 15:12 | 38.53207 | 18.94688 | 37124 ft | 489 kts | 107° |
| 2026-05-05 15:12 | 38.51363 | 19.02962 | 37126 ft | 487 kts | 99° |
| 2026-05-05 15:13 | 38.50028 | 19.11454 | 37126 ft | 488 kts | 99° |
| 2026-05-05 15:13 | 38.48683 | 19.19945 | 37139 ft | 488 kts | 99° |
| 2026-05-05 15:14 | 38.47329 | 19.28437 | 37145 ft | 489 kts | 99° |
| 2026-05-05 15:14 | 38.45961 | 19.36937 | 37147 ft | 489 kts | 99° |
| 2026-05-05 15:15 | 38.44595 | 19.45432 | 37142 ft | 489 kts | 99° |
| 2026-05-05 15:15 | 38.43224 | 19.53931 | 37153 ft | 489 kts | 99° |
| 2026-05-05 15:16 | 38.41847 | 19.62374 | 37142 ft | 490 kts | 99° |
| 2026-05-05 15:16 | 38.40448 | 19.70876 | 37142 ft | 490 kts | 99° |
| 2026-05-05 15:17 | 38.39050 | 19.79379 | 37146 ft | 490 kts | 99° |
| 2026-05-05 15:17 | 38.37654 | 19.87882 | 37146 ft | 490 kts | 99° |
| 2026-05-05 15:18 | 38.36484 | 19.94954 | 37146 ft | 491 kts | 99° |
| 2026-05-05 15:18 | 38.35069 | 20.03465 | 37144 ft | 491 kts | 99° |
| 2026-05-05 15:19 | 38.33650 | 20.11977 | 37145 ft | 491 kts | 99° |
| 2026-05-05 15:19 | 38.32218 | 20.20485 | 37149 ft | 492 kts | 99° |
| 2026-05-05 15:20 | 38.30823 | 20.29009 | 37142 ft | 491 kts | 97° |
| 2026-05-05 15:20 | 38.29717 | 20.37587 | 37143 ft | 491 kts | 95° |
| 2026-05-05 15:21 | 38.28722 | 20.46193 | 37143 ft | 491 kts | 95° |
| 2026-05-05 15:21 | 38.27660 | 20.54797 | 37149 ft | 492 kts | 96° |
| 2026-05-05 15:22 | 38.26536 | 20.63396 | 37125 ft | 493 kts | 96° |
| 2026-05-05 15:22 | 38.25398 | 20.72011 | 37126 ft | 494 kts | 96° |
| 2026-05-05 15:23 | 38.24272 | 20.80573 | 37130 ft | 494 kts | 96° |
| 2026-05-05 15:23 | 38.23136 | 20.89194 | 37129 ft | 494 kts | 96° |
| 2026-05-05 15:24 | 38.21990 | 20.97824 | 37131 ft | 495 kts | 96° |
| 2026-05-05 15:24 | 38.20836 | 21.06445 | 37128 ft | 495 kts | 96° |
| 2026-05-05 15:25 | 38.19687 | 21.15068 | 37140 ft | 495 kts | 96° |
| 2026-05-05 15:25 | 38.18522 | 21.23696 | 37131 ft | 495 kts | 96° |
| 2026-05-05 15:26 | 38.17354 | 21.32272 | 37130 ft | 496 kts | 96° |
| 2026-05-05 15:26 | 38.16175 | 21.40897 | 37126 ft | 496 kts | 96° |
| 2026-05-05 15:27 | 38.14949 | 21.49523 | 37128 ft | 496 kts | 97° |
| 2026-05-05 15:27 | 38.13619 | 21.58134 | 37127 ft | 496 kts | 97° |
| 2026-05-05 15:28 | 38.12275 | 21.66733 | 37124 ft | 496 kts | 97° |
| 2026-05-05 15:28 | 38.10947 | 21.75328 | 37126 ft | 496 kts | 97° |
| 2026-05-05 15:29 | 38.09626 | 21.83929 | 37124 ft | 497 kts | 97° |
| 2026-05-05 15:29 | 38.08295 | 21.92536 | 37119 ft | 497 kts | 97° |
| 2026-05-05 15:30 | 38.06945 | 22.01146 | 37114 ft | 497 kts | 97° |
| 2026-05-05 15:30 | 38.05594 | 22.09741 | 37108 ft | 497 kts | 97° |
| 2026-05-05 15:31 | 38.04247 | 22.18307 | 37118 ft | 498 kts | 97° |
| 2026-05-05 15:31 | 38.02886 | 22.26924 | 37104 ft | 498 kts | 97° |
| 2026-05-05 15:32 | 38.01505 | 22.35544 | 37096 ft | 498 kts | 97° |
| 2026-05-05 15:32 | 38.00131 | 22.44141 | 37094 ft | 498 kts | 97° |
| 2026-05-05 15:33 | 37.98749 | 22.52746 | 37086 ft | 498 kts | 97° |
| 2026-05-05 15:33 | 37.97359 | 22.61362 | 37079 ft | 499 kts | 97° |
| 2026-05-05 15:34 | 37.95994 | 22.69972 | 37075 ft | 497 kts | 96° |
| 2026-05-05 15:34 | 37.94875 | 22.78567 | 37081 ft | 498 kts | 94° |
| 2026-05-05 15:35 | 37.93147 | 22.87075 | 37073 ft | 505 kts | 112° |
| 2026-05-05 15:35 | 37.91428 | 22.90958 | 37069 ft | 507 kts | 124° |
| 2026-05-05 15:35 | 37.89178 | 22.94381 | 37066 ft | 507 kts | 136° |
| 2026-05-05 15:35 | 37.86496 | 22.97263 | 37047 ft | 505 kts | 147° |
| 2026-05-05 15:36 | 37.83501 | 22.99531 | 37040 ft | 501 kts | 157° |
| 2026-05-05 15:36 | 37.77228 | 23.03442 | 37038 ft | 502 kts | 156° |
| 2026-05-05 15:37 | 37.71093 | 23.07681 | 36980 ft | 507 kts | 142° |
| 2026-05-05 15:37 | 37.68544 | 23.10694 | 36129 ft | 514 kts | 128° |
| 2026-05-05 15:37 | 37.66615 | 23.14534 | 34823 ft | 523 kts | 109° |
| 2026-05-05 15:37 | 37.65585 | 23.18850 | 33811 ft | 508 kts | 94° |
| 2026-05-05 15:38 | 37.65365 | 23.23228 | 32489 ft | 495 kts | 79° |
| 2026-05-05 15:38 | 37.65923 | 23.27454 | 31075 ft | 482 kts | 66° |
| 2026-05-05 15:38 | 37.67202 | 23.31305 | 29506 ft | 470 kts | 52° |
| 2026-05-05 15:38 | 37.69092 | 23.34602 | 27697 ft | 460 kts | 40° |
| 2026-05-05 15:39 | 37.71449 | 23.37294 | 25831 ft | 458 kts | 33° |
| 2026-05-05 15:39 | 37.73904 | 23.39817 | 24767 ft | 447 kts | 33° |
| 2026-05-05 15:39 | 37.76072 | 23.42489 | 24505 ft | 426 kts | 46° |
| 2026-05-05 15:39 | 37.77606 | 23.45636 | 23980 ft | 419 kts | 60° |
| 2026-05-05 15:40 | 37.78714 | 23.49009 | 23393 ft | 414 kts | 62° |
| 2026-05-05 15:40 | 37.79802 | 23.52376 | 22718 ft | 413 kts | 62° |
| 2026-05-05 15:40 | 37.80884 | 23.55737 | 22204 ft | 409 kts | 62° |
| 2026-05-05 15:40 | 37.81926 | 23.58987 | 21914 ft | 390 kts | 62° |
| 2026-05-05 15:41 | 37.82935 | 23.62126 | 21226 ft | 380 kts | 62° |
| 2026-05-05 15:41 | 37.83929 | 23.65194 | 20467 ft | 373 kts | 62° |
| 2026-05-05 15:41 | 37.84907 | 23.68209 | 19696 ft | 367 kts | 62° |
| 2026-05-05 15:41 | 37.85870 | 23.71179 | 18947 ft | 362 kts | 63° |
| 2026-05-05 15:42 | 37.86815 | 23.74106 | 18206 ft | 357 kts | 63° |
| 2026-05-05 15:42 | 37.87745 | 23.76992 | 17425 ft | 351 kts | 63° |
| 2026-05-05 15:42 | 37.88657 | 23.79826 | 16661 ft | 345 kts | 63° |
| 2026-05-05 15:42 | 37.89495 | 23.82607 | 15870 ft | 341 kts | 66° |
| 2026-05-05 15:43 | 37.90256 | 23.85447 | 14851 ft | 343 kts | 68° |
| 2026-05-05 15:43 | 37.90985 | 23.88349 | 13753 ft | 348 kts | 69° |
| 2026-05-05 15:43 | 37.91702 | 23.91281 | 12544 ft | 350 kts | 70° |
| 2026-05-05 15:43 | 37.92424 | 23.94235 | 11374 ft | 351 kts | 70° |
| 2026-05-05 15:44 | 37.93158 | 23.97184 | 10241 ft | 352 kts | 70° |
| 2026-05-05 15:44 | 37.93906 | 24.00140 | 9047 ft | 352 kts | 69° |
| 2026-05-05 15:44 | 37.94663 | 24.03093 | 7863 ft | 351 kts | 69° |
| 2026-05-05 15:44 | 37.95418 | 24.06025 | 6722 ft | 350 kts | 69° |
| 2026-05-05 15:45 | 37.96172 | 24.08951 | 5567 ft | 348 kts | 69° |
| 2026-05-05 15:45 | 37.96917 | 24.11855 | 4613 ft | 341 kts | 70° |
| 2026-05-05 15:45 | 37.97631 | 24.14661 | 4369 ft | 328 kts | 70° |
| 2026-05-05 15:45 | 37.98316 | 24.17359 | 4239 ft | 314 kts | 69° |
| 2026-05-05 15:46 | 37.99295 | 24.19729 | 4108 ft | 297 kts | 46° |
| 2026-05-05 15:46 | 38.00897 | 24.21212 | 4038 ft | 277 kts | 20° |
| 2026-05-05 15:46 | 38.02694 | 24.21640 | 4048 ft | 260 kts | 356° |
| 2026-05-05 15:46 | 38.04423 | 24.21128 | 4048 ft | 255 kts | 334° |
| 2026-05-05 15:47 | 38.05947 | 24.20009 | 4047 ft | 248 kts | 327° |
| 2026-05-05 15:47 | 38.06901 | 24.19204 | 4050 ft | 239 kts | 325° |
| 2026-05-05 15:47 | 38.08588 | 24.17585 | 4046 ft | 220 kts | 321° |
| 2026-05-05 15:47 | 38.09721 | 24.16335 | 4047 ft | 214 kts | 317° |
| 2026-05-05 15:48 | 38.10786 | 24.15024 | 4050 ft | 213 kts | 315° |
| 2026-05-05 15:48 | 38.11805 | 24.13667 | 4052 ft | 212 kts | 307° |
| 2026-05-05 15:48 | 38.12207 | 24.11895 | 4051 ft | 216 kts | 264° |
| 2026-05-05 15:48 | 38.11628 | 24.10317 | 4052 ft | 223 kts | 230° |
| 2026-05-05 15:49 | 38.10674 | 24.09180 | 4056 ft | 227 kts | 221° |
| 2026-05-05 15:49 | 38.10240 | 24.08747 | 4054 ft | 227 kts | 219° |
| 2026-05-05 15:49 | 38.09213 | 24.07807 | 4048 ft | 228 kts | 217° |
| 2026-05-05 15:49 | 38.07878 | 24.06689 | 3789 ft | 235 kts | 213° |
| 2026-05-05 15:50 | 38.06482 | 24.05526 | 3219 ft | 240 kts | 216° |
| 2026-05-05 15:50 | 38.05165 | 24.04302 | 2844 ft | 229 kts | 218° |
| 2026-05-05 15:50 | 38.03926 | 24.03116 | 2544 ft | 218 kts | 217° |
| 2026-05-05 15:50 | 38.02743 | 24.01984 | 2259 ft | 208 kts | 217° |
| 2026-05-05 15:51 | 38.01626 | 24.00917 | 2019 ft | 194 kts | 217° |
| 2026-05-05 15:51 | 38.00584 | 23.99922 | 1762 ft | 179 kts | 216° |
| 2026-05-05 15:51 | 37.99633 | 23.99014 | 1496 ft | 166 kts | 216° |
| 2026-05-05 15:51 | 37.98726 | 23.98147 | 1213 ft | 159 kts | 216° |
| 2026-05-05 15:52 | 37.97871 | 23.97329 | 1067 ft | 151 kts | 217° |
| 2026-05-05 15:52 | 37.97043 | 23.96537 | 928 ft | 146 kts | 217° |
| 2026-05-05 15:52 | 37.96231 | 23.95763 | 718 ft | 145 kts | 216° |
| 2026-05-05 15:52 | 37.95435 | 23.95014 | 514 ft | 142 kts | 216° |
| 2026-05-05 15:53 | 37.94658 | 23.94279 | 329 ft | 142 kts | 215° |
| 2026-05-05 15:53 | 37.93921 | 23.93582 | 294 ft | 112 kts | 217° |
| 2026-05-05 15:53 | 37.93446 | 23.93127 | 292 ft | 52 kts | 217° |
| 2026-05-05 15:53 | 37.93167 | 23.92882 | 293 ft | 44 kts | 203° |
| 2026-05-05 15:54 | 37.93025 | 23.92833 | 293 ft | 2 kts | 184° |
| 2026-05-05 15:54 | 37.93017 | 23.92833 | 293 ft | 0 kts | 185° |
| 2026-05-05 15:54 | 37.93016 | 23.92833 | 294 ft | 1 kts | 185° |
| 2026-05-05 15:55 | 37.92978 | 23.92827 | 300 ft | 10 kts | 184° |
| 2026-05-05 15:55 | 37.92936 | 23.92908 | 300 ft | 18 kts | 65° |
| 2026-05-05 15:55 | 37.93059 | 23.93035 | 302 ft | 27 kts | 36° |
| 2026-05-05 15:55 | 37.93209 | 23.93178 | 300 ft | 25 kts | 37° |
| 2026-05-05 15:56 | 37.93354 | 23.93314 | 301 ft | 26 kts | 37° |
| 2026-05-05 15:56 | 37.93428 | 23.93410 | 301 ft | 15 kts | 76° |
| 2026-05-05 15:56 | 37.93380 | 23.93524 | 300 ft | 16 kts | 126° |
| 2026-05-05 15:56 | 37.93310 | 23.93644 | 301 ft | 18 kts | 127° |
| 2026-05-05 15:57 | 37.93229 | 23.93779 | 301 ft | 20 kts | 127° |
| 2026-05-05 15:57 | 37.93137 | 23.93930 | 303 ft | 23 kts | 128° |
| 2026-05-05 15:57 | 37.93109 | 23.94067 | 302 ft | 18 kts | 52° |
| 2026-05-05 15:57 | 37.93213 | 23.94166 | 304 ft | 20 kts | 36° |
| 2026-05-05 15:58 | 37.93273 | 23.94303 | 301 ft | 20 kts | 122° |
| 2026-05-05 15:58 | 37.93185 | 23.94453 | 303 ft | 22 kts | 126° |
| 2026-05-05 15:58 | 37.93179 | 23.94557 | 302 ft | 14 kts | 41° |
| 2026-05-05 15:58 | 37.93262 | 23.94638 | 302 ft | 16 kts | 37° |
| 2026-05-05 15:59 | 37.93359 | 23.94728 | 302 ft | 18 kts | 37° |
| 2026-05-05 15:59 | 37.93467 | 23.94832 | 302 ft | 21 kts | 37° |
| 2026-05-05 15:59 | 37.93555 | 23.94908 | 301 ft | 6 kts | 4° |
| 2026-05-05 15:59 | 37.93587 | 23.94869 | 301 ft | 8 kts | 308° |
| 2026-05-05 16:00 | 37.93609 | 23.94833 | 304 ft | 0 kts | 306° |